Time;durP1;ratioP1;P1;durP2;ratioP2;P2;SDS_P1;SDS_P2;PMS_P1;PMS_P2;Temp;Humidity;BMP_temperature;BMP_pressure;BME280_temperature;BME280_humidity;BME280_pressure;Samples;Min_cycle;Max_cycle;Signal;HPM_P1;HPM_P2
2023/01/24 00:02:08;;;;;;;3.10;1.30;;;10.70;99.90;;;10.97;49.10;103186.50;4931698;28;97441;-51
2023/01/24 00:04:34;;;;;;;2.33;1.80;;;10.50;99.90;;;10.76;46.16;103196.13;4928713;28;98966;-51
2023/01/24 00:06:59;;;;;;;2.10;1.63;;;10.30;99.90;;;10.57;48.69;103195.19;4930331;28;97383;-54
2023/01/24 00:09:25;;;;;;;2.80;1.50;;;10.10;99.90;;;10.72;49.83;103184.69;4911051;28;97769;-55
2023/01/24 00:11:51;;;;;;;3.23;1.73;;;10.10;99.90;;;10.93;49.44;103190.03;4912639;28;100634;-57
2023/01/24 00:14:17;;;;;;;2.93;2.07;;;10.50;99.90;;;11.03;45.46;103185.66;4926962;28;103277;-55
2023/01/24 00:16:43;;;;;;;4.40;2.00;;;10.70;99.90;;;11.32;48.45;103193.63;4928091;28;97397;-56
2023/01/24 00:19:09;;;;;;;3.30;1.90;;;11.10;99.90;;;11.43;46.46;103194.53;4919967;28;104372;-52
2023/01/24 00:21:34;;;;;;;1.87;1.37;;;11.20;99.90;;;11.45;47.90;103190.13;4932232;28;97397;-55
2023/01/24 00:24:00;;;;;;;0.90;0.80;;;11.10;99.90;;;11.50;48.17;103191.00;4934180;28;98436;-51
2023/01/24 00:26:26;;;;;;;1.97;1.20;;;11.10;99.90;;;11.61;47.96;103196.31;4931618;28;97472;-55
2023/01/24 00:28:53;;;;;;;2.67;2.13;;;11.30;99.90;;;11.68;46.42;103197.16;4938644;28;98931;-56
2023/01/24 00:31:19;;;;;;;2.87;1.80;;;11.30;99.90;;;11.35;43.00;103204.22;4936023;28;100029;-56
2023/01/24 00:33:44;;;;;;;3.10;1.93;;;10.90;99.90;;;11.20;44.97;103196.25;4938512;28;99302;-55
2023/01/24 00:36:11;;;;;;;2.50;1.60;;;10.70;99.90;;;11.10;48.66;103191.81;4936796;28;97602;-56
2023/01/24 00:38:37;;;;;;;2.20;1.47;;;10.50;99.90;;;11.44;48.26;103204.22;4936503;28;97719;-57
2023/01/24 00:41:03;;;;;;;2.27;1.73;;;11.10;99.90;;;11.28;42.96;103202.41;4938231;28;97543;-56
2023/01/24 00:43:29;;;;;;;2.73;1.47;;;11.10;99.90;;;11.44;47.18;103204.22;4937449;28;97940;-56
2023/01/24 00:45:56;;;;;;;2.87;1.50;;;11.20;99.90;;;11.49;47.70;103213.03;4939463;28;100007;-56
2023/01/24 00:48:22;;;;;;;5.33;2.20;;;11.20;99.90;;;11.35;45.06;103204.22;4938582;28;97197;-57
2023/01/24 00:50:48;;;;;;;2.37;1.70;;;11.00;99.90;;;11.38;47.85;103209.50;4942006;28;97396;-54
2023/01/24 00:53:14;;;;;;;3.47;1.83;;;10.90;99.90;;;11.41;46.85;103203.31;4940908;28;100003;-57
2023/01/24 00:55:44;;;;;;;2.60;1.80;;;11.00;99.90;;;11.40;47.93;103202.44;4939504;28;99348;-56
2023/01/24 00:58:11;;;;;;;2.60;1.67;;;10.90;99.90;;;11.48;47.22;103195.41;4939605;28;97429;-55
2023/01/24 01:00:38;;;;;;;4.23;1.80;;;11.00;99.90;;;11.24;44.03;103205.94;4937526;28;96929;-55
2023/01/24 01:03:06;;;;;;;2.60;1.63;;;10.80;99.90;;;10.79;44.05;103204.06;4938203;28;104710;-53
2023/01/24 01:05:32;;;;;;;4.60;1.80;;;10.30;99.90;;;10.41;45.29;103199.47;4937112;28;97543;-50
2023/01/24 01:07:58;;;;;;;2.60;1.80;;;9.90;99.90;;;10.52;49.12;103202.16;4935916;28;97585;-50
2023/01/24 01:10:23;;;;;;;4.00;2.20;;;9.90;99.90;;;10.36;45.70;103210.00;4936132;28;98955;-54
2023/01/24 01:12:49;;;;;;;3.03;1.80;;;9.90;99.90;;;10.03;46.11;103204.50;4940279;28;107037;-53
2023/01/24 01:15:15;;;;;;;3.43;2.10;;;9.60;99.90;;;9.96;49.68;103205.31;4935625;28;97168;-56
2023/01/24 01:17:41;;;;;;;4.87;1.83;;;9.40;99.90;;;9.99;51.11;103198.34;4943422;28;97659;-53
2023/01/24 01:20:08;;;;;;;3.90;2.33;;;9.40;99.90;;;9.64;47.33;103198.03;4949339;28;99034;-53
2023/01/24 01:22:34;;;;;;;4.23;2.00;;;9.20;99.90;;;9.48;48.68;103206.69;4948450;28;98211;-50
2023/01/24 01:25:00;;;;;;;4.47;2.90;;;9.10;99.90;;;9.51;49.93;103201.44;4953601;28;97062;-50
2023/01/24 01:27:26;;;;;;;3.43;1.97;;;9.10;99.90;;;9.76;51.03;103203.41;4951710;28;97039;-50
2023/01/24 01:29:51;;;;;;;3.23;1.77;;;9.30;99.90;;;10.01;52.16;103198.34;4951833;28;97520;-52
2023/01/24 01:32:17;;;;;;;2.90;2.00;;;9.60;99.90;;;10.16;49.34;103203.72;4950505;28;98328;-51
2023/01/24 01:34:43;;;;;;;2.57;1.50;;;9.80;99.90;;;10.37;50.69;103213.53;4951816;28;97034;-52
2023/01/24 01:37:09;;;;;;;2.63;1.57;;;9.90;99.90;;;10.84;50.26;103204.94;4954170;28;97279;-52
2023/01/24 01:39:34;;;;;;;4.23;1.80;;;10.60;99.90;;;11.19;48.30;103205.06;4951779;28;103270;-47
2023/01/24 01:42:00;;;;;;;3.83;2.13;;;11.10;99.90;;;11.10;45.13;103203.25;4954640;28;112769;-51
2023/01/24 01:44:49;;;;;;;3.33;2.00;;;11.00;99.90;;;10.91;46.77;103202.34;4949399;28;99881;-54
2023/01/24 01:47:31;;;;;;;1.20;0.83;;;10.60;99.90;;;10.90;46.62;103211.16;4951304;28;97629;-52
2023/01/24 01:50:17;;;;;;;2.37;1.50;;;10.50;99.90;;;10.87;49.14;103216.44;4953438;28;97317;-53
2023/01/24 01:52:44;;;;;;;5.10;2.00;;;10.40;99.90;;;10.79;48.91;103228.69;4947943;28;99882;-47
2023/01/24 01:55:17;;;;;;;1.90;1.13;;;10.30;99.90;;;10.87;49.30;103223.47;4954248;28;97191;-56
2023/01/24 01:57:44;;;;;;;2.63;1.70;;;10.40;99.90;;;10.82;44.93;103218.13;4930511;28;97369;-51
2023/01/24 02:00:17;;;;;;;4.33;2.00;;;10.40;99.90;;;10.96;49.40;103223.47;4931086;28;98151;-54
2023/01/24 02:02:50;;;;;;;1.50;0.77;;;10.50;99.90;;;11.07;48.59;103210.31;4950117;28;101350;-53
2023/01/24 02:05:21;;;;;;;1.57;0.90;;;10.60;99.90;;;11.28;48.88;103212.97;4949953;28;97167;-52
2023/01/24 02:07:58;;;;;;;3.73;1.90;;;10.90;99.90;;;11.45;48.35;103216.56;4953991;28;97139;-53
2023/01/24 02:11:37;;;;;;;4.10;2.13;;;11.20;99.90;;;11.54;45.60;103224.47;4944854;28;98050;-49
2023/01/24 02:13:11;;;;;;;4.63;2.27;;;11.30;99.90;;;11.52;46.97;103218.31;4953715;28;97970;-53
2023/01/24 02:18:22;;;;;;;2.43;1.53;;;11.20;99.90;;;11.49;47.73;103218.31;4949646;28;96814;-54
2023/01/24 02:20:49;;;;;;;3.47;2.00;;;11.00;99.90;;;11.45;47.01;103221.84;4956812;28;97271;-52
2023/01/24 02:23:41;;;;;;;4.13;1.93;;;10.90;99.90;;;11.48;47.04;103210.41;4944663;28;97478;-59
2023/01/24 02:26:13;;;;;;;1.70;1.07;;;10.90;99.90;;;11.48;48.09;103211.28;4957044;28;97285;-52
2023/01/24 02:29:04;;;;;;;2.07;1.07;;;10.90;99.90;;;11.70;47.87;103227.13;4951157;28;97444;-52
2023/01/24 02:32:00;;;;;;;2.23;1.20;;;11.40;99.90;;;11.88;47.49;103221.91;4940279;28;98491;-52
2023/01/24 02:34:28;;;;;;;2.07;1.00;;;11.60;99.90;;;12.20;46.46;103225.38;4934197;28;97493;-49
2023/01/24 02:36:59;;;;;;;2.13;0.87;;;12.10;99.90;;;12.40;46.18;103212.09;4955937;28;97483;-51
2023/01/24 02:39:55;;;;;;;1.27;1.00;;;12.40;99.90;;;12.62;45.71;103218.22;4946650;28;97113;-54
2023/01/24 02:42:27;;;;;;;1.67;0.97;;;12.60;99.90;;;12.85;45.37;103206.63;4950058;28;99037;-54
2023/01/24 02:45:25;;;;;;;1.93;1.20;;;13.00;99.90;;;12.81;44.94;103204.00;4956214;28;97406;-52
2023/01/24 02:47:54;;;;;;;2.93;1.30;;;12.90;98.50;;;12.63;44.64;103198.78;4927705;28;97576;-52
2023/01/24 02:50:27;;;;;;;1.63;1.10;;;12.50;98.50;;;12.48;45.77;103205.03;4924520;28;102223;-55
2023/01/24 02:58:05;;;;;;;1.77;1.13;;;12.00;99.90;;;12.48;43.63;103201.50;4943551;28;98274;-55
2023/01/24 02:58:25;;;;;;;2.17;0.97;;;12.20;99.90;;;12.68;45.31;103207.59;4945363;28;98268;-56
2023/01/24 03:00:51;;;;;;;3.63;1.70;;;12.60;99.90;;;12.71;45.04;103202.25;4952808;28;96881;-53
2023/01/24 03:03:16;;;;;;;1.30;1.03;;;12.70;99.60;;;12.74;45.12;103212.88;4941839;28;97245;-56
2023/01/24 03:05:58;;;;;;;2.33;1.13;;;12.60;99.90;;;12.53;44.58;103210.28;4952529;28;96993;-55
2023/01/24 03:08:27;;;;;;;4.53;2.40;;;12.40;97.80;;;12.39;44.76;103206.81;4944981;28;97252;-54
2023/01/24 03:10:53;;;;;;;2.23;1.57;;;11.90;98.90;;;12.36;44.63;103214.75;4934534;28;99040;-56
2023/01/24 03:35:19;;;;;;;3.83;2.13;;;12.70;99.90;;;12.60;40.66;103193.50;4930139;28;97151;-56
2023/01/24 03:40:29;;;;;;;2.73;1.93;;;12.10;99.50;;;12.52;44.86;103190.88;4930904;28;97198;-56
2023/01/24 03:42:55;;;;;;;3.33;1.87;;;12.30;99.40;;;12.16;42.15;103191.88;4953377;28;96981;-53
2023/01/24 03:45:28;;;;;;;3.00;2.00;;;11.80;96.70;;;11.67;43.35;103195.41;4947130;28;97853;-55
2023/01/24 03:48:00;;;;;;;2.67;1.50;;;11.10;98.50;;;11.42;45.11;103199.78;4945713;28;98424;-56
2023/01/24 03:53:19;;;;;;;3.47;2.23;;;10.60;99.90;;;11.07;44.96;103197.09;4949841;28;97152;-53
2023/01/24 03:55:46;;;;;;;3.00;1.60;;;10.40;99.60;;;11.03;46.75;103201.50;4937202;28;97425;-55
2023/01/24 03:58:12;;;;;;;2.10;1.20;;;10.30;99.90;;;11.03;45.23;103202.38;4953804;28;97526;-52
2023/01/24 04:00:39;;;;;;;0.80;0.80;;;10.40;99.90;;;11.17;48.87;103196.25;4935044;28;96826;-53
2023/01/24 04:03:05;;;;;;;1.80;1.23;;;10.60;99.90;;;11.11;48.26;103194.47;4930575;28;100096;-56
2023/01/24 04:05:35;;;;;;;3.53;2.47;;;10.70;99.90;;;10.90;44.62;103195.31;4950927;28;97344;-54
2023/01/24 04:08:02;;;;;;;2.50;1.80;;;10.40;99.30;;;10.96;47.40;103195.31;4956759;28;97381;-52
2023/01/24 04:10:28;;;;;;;1.97;1.30;;;10.30;99.90;;;10.78;44.78;103200.53;4951765;28;97755;-54
2023/01/24 04:12:55;;;;;;;4.47;2.23;;;10.10;99.90;;;10.57;44.89;103193.41;4955127;28;97367;-51
2023/01/24 04:15:27;;;;;;;3.63;2.00;;;9.90;99.90;;;10.50;46.02;103194.25;4929488;28;97942;-52
2023/01/24 04:17:59;;;;;;;1.83;1.17;;;9.80;99.90;;;10.28;46.92;103201.19;4954614;28;97160;-54
2023/01/24 04:20:27;;;;;;;1.60;1.40;;;9.60;99.90;;;9.94;45.75;103199.16;4916458;28;98639;-55
2023/01/24 04:22:54;;;;;;;1.33;0.90;;;9.30;99.90;;;10.14;51.03;103201.06;4954048;28;97397;-54
2023/01/24 04:25:20;;;;;;;3.67;2.03;;;9.50;99.90;;;10.14;46.80;103202.81;4944435;28;103189;-55
2023/01/24 04:27:46;;;;;;;4.97;2.67;;;9.60;99.90;;;10.17;48.03;103196.69;4956241;28;97501;-55
2023/01/24 04:30:14;;;;;;;1.80;1.10;;;9.60;99.90;;;10.19;50.51;103202.84;4951373;28;97011;-53
2023/01/24 04:32:40;;;;;;;4.47;2.60;;;9.60;99.90;;;10.19;47.44;103192.28;4948333;28;97422;-56
2023/01/24 04:35:07;;;;;;;2.20;1.73;;;9.70;99.90;;;10.15;50.10;103201.94;4936935;28;98981;-52
2023/01/24 04:37:33;;;;;;;2.87;1.70;;;9.50;99.90;;;10.29;49.56;103204.72;4951417;28;96686;-55
2023/01/24 04:40:02;;;;;;;5.50;2.30;;;9.60;99.90;;;9.96;47.00;103215.84;4955508;28;97459;-55
2023/01/24 04:42:28;;;;;;;3.80;2.10;;;9.40;99.90;;;10.08;49.28;103206.28;4945691;28;97022;-55
2023/01/24 04:44:54;;;;;;;4.77;2.13;;;9.40;99.90;;;10.00;49.41;103201.84;4954812;28;97467;-56
2023/01/24 04:47:20;;;;;;;4.40;2.37;;;9.30;99.90;;;9.97;47.31;103207.06;4948651;28;97220;-53
2023/01/24 04:49:46;;;;;;;3.10;1.47;;;9.30;99.90;;;9.86;51.04;103198.22;4954892;28;97285;-56
2023/01/24 04:52:13;;;;;;;4.77;2.37;;;9.20;99.90;;;10.03;49.75;103201.88;4952832;28;97173;-50
2023/01/24 04:54:40;;;;;;;3.57;2.20;;;9.30;99.90;;;10.08;48.16;103200.13;4951397;28;98228;-56
2023/01/24 04:57:07;;;;;;;2.47;1.40;;;9.40;99.90;;;10.13;51.12;103195.78;4952981;28;98351;-55
2023/01/24 04:59:33;;;;;;;3.87;2.17;;;9.40;99.90;;;9.98;46.76;103187.75;4950026;28;97194;-54
2023/01/24 05:01:59;;;;;;;1.53;0.70;;;9.40;99.90;;;9.96;51.10;103200.03;4937433;28;97242;-52
2023/01/24 05:04:25;;;;;;;2.50;1.37;;;9.30;99.90;;;10.09;50.77;103196.63;4930261;28;99013;-50
2023/01/24 05:06:51;;;;;;;2.07;1.60;;;9.50;99.90;;;10.29;50.77;103191.50;4936808;28;96942;-56
2023/01/24 05:09:16;;;;;;;2.57;1.53;;;9.80;99.90;;;10.39;49.54;103190.66;4950201;28;98853;-54
2023/01/24 05:11:42;;;;;;;1.63;0.93;;;9.80;99.90;;;10.80;49.86;103188.22;4954411;28;96957;-55
2023/01/24 05:14:09;;;;;;;3.50;2.10;;;10.40;99.90;;;11.08;48.06;103198.88;4947206;28;98534;-55
2023/01/24 05:16:35;;;;;;;3.60;2.30;;;10.90;99.90;;;11.09;47.21;103195.34;4943280;28;97201;-54
2023/01/24 05:19:02;;;;;;;2.37;1.23;;;10.80;99.90;;;10.93;45.79;103195.31;4946941;28;99232;-54
2023/01/24 05:21:27;;;;;;;4.27;2.13;;;10.50;99.90;;;10.66;44.72;103201.34;4951935;28;96950;-53
2023/01/24 05:23:53;;;;;;;2.23;1.83;;;10.10;99.90;;;10.40;45.88;103198.59;4951075;28;97504;-54
2023/01/24 05:26:22;;;;;;;3.60;1.80;;;9.80;99.90;;;10.29;46.58;103199.44;4952275;28;97837;-50
2023/01/24 05:28:49;;;;;;;2.90;1.83;;;9.70;99.90;;;9.92;45.85;103209.69;4953652;28;96897;-54
2023/01/24 05:31:16;;;;;;;4.27;2.20;;;9.30;99.90;;;9.88;46.47;103207.03;4952231;28;97369;-56
2023/01/24 05:33:43;;;;;;;2.83;1.70;;;9.30;99.90;;;9.61;46.94;103203.28;4945063;28;101004;-54
2023/01/24 05:36:16;;;;;;;2.50;1.73;;;9.00;99.90;;;9.46;48.98;103209.31;4930883;28;97525;-54
2023/01/24 05:38:43;;;;;;;1.43;1.20;;;8.90;99.90;;;9.50;51.72;103210.22;4930848;28;99427;-55
2023/01/24 05:41:13;;;;;;;5.17;2.10;;;8.90;99.90;;;9.38;47.97;103210.09;4949166;28;97981;-50
2023/01/24 05:43:39;;;;;;;3.90;2.47;;;8.90;99.90;;;9.15;46.24;103209.88;4918726;28;100096;-52
2023/01/24 05:46:10;;;;;;;4.27;1.83;;;8.70;99.90;;;8.92;47.19;103212.22;4951454;28;98701;-55
2023/01/24 05:48:38;;;;;;;2.83;1.97;;;8.50;99.90;;;8.76;48.69;103213.81;4942623;28;98595;-52
2023/01/24 05:51:07;;;;;;;4.73;2.17;;;8.30;99.90;;;8.57;48.70;103212.69;4938944;28;97091;-56
2023/01/24 05:53:37;;;;;;;4.37;2.33;;;8.20;99.90;;;8.40;48.65;103216.84;4948445;28;98455;-54
2023/01/24 05:56:07;;;;;;;3.70;1.87;;;8.00;99.90;;;8.43;51.56;103222.16;4953701;28;97287;-52
2023/01/24 05:58:37;;;;;;;3.87;1.90;;;7.90;99.90;;;8.30;50.44;103209.66;4949233;28;98223;-56
2023/01/24 06:01:15;;;;;;;3.10;1.80;;;7.90;99.90;;;8.47;51.61;103221.31;4951283;28;96923;-54
2023/01/24 06:03:42;;;;;;;3.20;1.80;;;8.00;99.90;;;8.41;51.15;103221.25;4944653;28;102382;-53
2023/01/24 06:06:10;;;;;;;3.70;1.90;;;7.90;99.90;;;8.40;53.26;103223.88;4936284;28;97244;-54
2023/01/24 06:08:37;;;;;;;2.43;1.23;;;7.90;99.90;;;8.77;54.93;103225.22;4942369;28;97080;-53
2023/01/24 06:11:06;;;;;;;3.93;1.80;;;8.20;99.90;;;8.73;49.75;103228.69;4955048;28;97230;-50
2023/01/24 06:13:32;;;;;;;1.10;1.00;;;8.30;99.90;;;9.10;54.34;103225.59;4930557;28;97222;-54
2023/01/24 06:16:05;;;;;;;5.27;2.00;;;8.50;99.90;;;9.09;48.38;103239.63;4950599;28;97343;-55
2023/01/24 06:18:31;;;;;;;4.30;2.20;;;8.70;99.90;;;9.01;47.54;103238.69;4913918;28;97305;-50
2023/01/24 06:20:57;;;;;;;2.67;1.83;;;8.60;99.90;;;8.75;47.62;103237.47;4954513;28;97144;-51
2023/01/24 06:23:26;;;;;;;2.70;1.47;;;8.40;99.90;;;8.57;48.97;103244.28;4926905;28;99092;-52
2023/01/24 06:25:53;;;;;;;4.30;2.23;;;8.20;99.90;;;8.42;48.53;103259.84;4951260;28;99988;-54
2023/01/24 06:28:19;;;;;;;2.67;1.70;;;8.10;99.90;;;8.21;49.00;103260.34;4948193;28;96892;-52
2023/01/24 06:31:24;;;;;;;3.13;2.17;;;7.90;99.90;;;8.20;49.78;103262.97;4952921;28;100690;-56
2023/01/24 06:34:39;;;;;;;5.17;2.70;;;7.80;99.90;;;8.22;51.98;103269.13;4944747;28;101945;-56
2023/01/24 06:37:38;;;;;;;4.30;2.20;;;7.80;99.90;;;8.14;50.40;103262.88;4944106;28;100934;-51
2023/01/24 06:40:09;;;;;;;7.07;2.57;;;7.80;99.90;;;8.20;52.59;103268.22;4947326;28;97238;-56
2023/01/24 06:42:36;;;;;;;2.50;1.80;;;7.80;99.90;;;8.19;51.49;103271.72;4932039;28;97248;-55
2023/01/24 06:45:03;;;;;;;5.30;2.60;;;7.80;99.90;;;8.19;50.70;103266.47;4954366;28;97432;-55
2023/01/24 06:47:29;;;;;;;1.90;0.90;;;7.70;99.90;;;8.43;55.66;103271.25;4947687;28;97438;-54
2023/01/24 06:49:55;;;;;;;2.30;1.27;;;7.80;99.90;;;8.91;54.71;103268.38;4955148;28;97110;-52
2023/01/24 06:52:21;;;;;;;3.57;2.23;;;8.40;99.90;;;9.12;52.07;103263.41;4946843;28;97276;-54
2023/01/24 06:54:46;;;;;;;4.10;2.47;;;8.70;99.90;;;9.02;50.75;103264.16;4952305;28;96952;-56
2023/01/24 06:57:13;;;;;;;5.40;2.57;;;8.60;99.90;;;9.10;52.48;103273.00;4950956;28;97865;-57
2023/01/24 06:59:39;;;;;;;1.93;1.20;;;8.60;99.90;;;9.31;53.47;103271.50;4899878;28;1464348;-55
2023/01/24 07:02:05;;;;;;;3.63;1.30;;;8.70;99.90;;;9.69;52.68;103275.41;4938448;28;97114;-56
2023/01/24 07:04:31;;;;;;;3.43;2.17;;;9.10;99.90;;;9.81;51.43;103278.16;4951909;28;97255;-56
2023/01/24 07:06:57;;;;;;;4.93;2.63;;;9.30;99.90;;;9.88;48.25;103280.84;4954369;28;97213;-55
2023/01/24 07:09:23;;;;;;;4.83;2.70;;;9.30;99.90;;;10.11;51.01;103284.53;4948220;28;97090;-51
2023/01/24 07:11:52;;;;;;;3.10;1.13;;;9.40;99.90;;;10.00;51.30;103288.88;4954762;28;97152;-55
2023/01/24 07:14:21;;;;;;;2.43;1.90;;;9.30;99.90;;;10.21;50.38;103291.69;4932109;28;98602;-60
2023/01/24 07:16:49;;;;;;;2.27;1.63;;;9.50;99.90;;;10.57;50.24;103295.47;4951274;28;99628;-54
2023/01/24 07:19:19;;;;;;;2.93;1.80;;;10.10;99.90;;;10.66;49.39;103292.88;4953253;28;97453;-56
2023/01/24 07:21:45;;;;;;;5.67;2.43;;;10.10;99.90;;;10.67;46.91;103302.56;4949903;28;97528;-56
2023/01/24 07:24:20;;;;;;;2.53;1.00;;;10.10;99.90;;;10.87;49.40;103300.06;4953247;28;99236;-55
2023/01/24 07:26:48;;;;;;;1.30;1.07;;;10.30;99.90;;;11.05;48.89;103300.13;4916298;28;102863;-50
2023/01/24 07:29:14;;;;;;;1.93;0.90;;;10.70;99.90;;;11.25;48.60;103302.84;4957924;28;97590;-54
2023/01/24 07:31:40;;;;;;;1.43;0.90;;;11.00;99.90;;;11.34;48.25;103302.88;4953794;28;96885;-55
2023/01/24 07:34:05;;;;;;;3.17;1.77;;;11.00;99.90;;;11.52;47.83;103308.19;4956752;28;98092;-56
2023/01/24 07:36:31;;;;;;;1.10;0.90;;;11.20;99.90;;;11.94;46.95;103316.22;4952498;28;98458;-53
2023/01/24 07:38:57;;;;;;;0.77;0.67;;;11.80;99.90;;;12.26;46.15;103313.59;4956784;28;97571;-53
2023/01/24 07:41:24;;;;;;;2.27;0.70;;;12.30;99.90;;;12.57;45.53;103327.66;4947698;28;97187;-54
2023/01/24 07:43:50;;;;;;;3.73;1.90;;;12.70;99.90;;;12.74;43.52;103325.88;4953592;28;97784;-54
2023/01/24 07:46:18;;;;;;;3.10;1.40;;;13.00;96.40;;;12.80;44.75;103313.50;4936897;28;97568;-50
2023/01/24 07:48:44;;;;;;;1.60;1.27;;;12.90;99.30;;;12.78;44.58;103330.28;4942980;28;97207;-54
2023/01/24 07:51:10;;;;;;;1.40;0.70;;;12.70;98.90;;;12.94;44.80;103332.00;4945837;28;97772;-55
2023/01/24 07:53:36;;;;;;;1.07;0.77;;;12.90;99.90;;;13.04;44.34;103332.84;4934763;28;97818;-54
2023/01/24 07:56:03;;;;;;;2.20;0.53;;;13.10;99.90;;;13.18;44.22;103331.06;4938057;28;98157;-51
2023/01/24 07:58:30;;;;;;;5.90;1.63;;;13.30;99.80;;;13.28;43.89;103338.06;4926959;28;98798;-56
2023/01/24 08:00:56;;;;;;;2.37;1.60;;;13.50;99.10;;;13.36;40.70;103335.41;4948078;28;97151;-53
2023/01/24 08:03:24;;;;;;;0.93;0.70;;;13.60;94.60;;;13.52;43.34;103333.53;4938307;28;97638;-50
2023/01/24 08:05:50;;;;;;;1.37;1.00;;;13.70;99.30;;;13.55;43.11;103330.88;4956109;28;97746;-57
2023/01/24 08:08:16;;;;;;;1.50;0.90;;;13.70;97.70;;;13.67;43.09;103328.16;4956984;28;97292;-52
2023/01/24 08:10:46;;;;;;;1.80;0.93;;;13.90;99.00;;;13.68;42.99;103332.56;4956724;28;97576;-55
2023/01/24 08:13:12;;;;;;;1.30;0.63;;;13.80;98.10;;;13.50;42.87;103337.97;4943594;28;99092;-53
2023/01/24 08:15:38;;;;;;;1.63;0.97;;;13.50;96.20;;;13.54;43.00;103323.81;4950106;28;99321;-54
2023/01/24 08:18:04;;;;;;;1.37;0.63;;;13.60;98.90;;;13.66;43.11;103331.69;4956299;28;97786;-55
2023/01/24 08:20:31;;;;;;;1.80;0.60;;;13.80;98.90;;;13.75;42.56;103336.94;4951952;28;99133;-55
2023/01/24 08:22:57;;;;;;;1.00;0.60;;;14.00;97.90;;;13.85;42.45;103341.28;4952801;28;97428;-51
2023/01/24 08:25:25;;;;;;;2.30;1.40;;;14.20;96.70;;;13.64;38.56;103330.81;4950348;28;104733;-55
2023/01/24 08:27:54;;;;;;;1.97;1.10;;;13.80;93.30;;;13.55;42.43;103341.47;4955279;28;98035;-55
2023/01/24 08:30:20;;;;;;;2.60;1.30;;;13.40;95.70;;;13.50;43.12;103343.28;4948518;28;97042;-54
2023/01/24 08:32:46;;;;;;;1.20;1.10;;;13.30;99.10;;;13.44;43.27;103348.59;4934332;28;97820;-49
2023/01/24 08:35:12;;;;;;;0.70;0.60;;;13.20;99.40;;;13.40;43.30;103353.03;4921389;28;97556;-54
2023/01/24 08:37:38;;;;;;;0.97;0.83;;;13.20;97.00;;;13.37;43.34;103359.25;4930366;28;97560;-54
2023/01/24 08:40:06;;;;;;;0.77;0.53;;;13.10;98.70;;;13.37;43.66;103356.59;4950946;28;97057;-55
2023/01/24 08:42:32;;;;;;;2.77;0.60;;;13.20;99.50;;;13.49;43.54;103347.72;4939251;28;98241;-53
2023/01/24 08:44:57;;;;;;;0.97;0.67;;;13.50;99.20;;;13.62;42.90;103348.53;4941197;28;98482;-55
2023/01/24 08:47:23;;;;;;;1.07;0.73;;;13.80;98.70;;;13.75;42.98;103355.53;4911443;28;97542;-52
2023/01/24 08:49:49;;;;;;;1.20;0.50;;;14.00;98.30;;;13.84;42.42;103355.44;4912685;28;97404;-53
2023/01/24 08:52:16;;;;;;;1.20;1.00;;;14.20;97.90;;;13.95;42.61;103363.34;4944390;28;99054;-54
2023/01/24 08:54:45;;;;;;;1.10;0.60;;;14.30;97.60;;;13.89;42.34;103358.97;4950210;28;97487;-54
2023/01/24 08:57:11;;;;;;;1.53;0.90;;;14.10;97.40;;;13.98;42.23;103363.31;4951096;28;98486;-54
2023/01/24 08:59:37;;;;;;;4.77;1.70;;;14.20;97.70;;;13.98;38.90;103366.84;4949755;28;97750;-54
2023/01/24 09:02:04;;;;;;;1.80;1.07;;;14.30;93.80;;;14.04;42.05;103367.72;4952173;28;97519;-55
2023/01/24 09:04:30;;;;;;;1.00;0.60;;;14.30;97.40;;;14.07;42.07;103371.22;4949556;28;96903;-55
2023/01/24 09:06:55;;;;;;;1.73;1.40;;;14.30;96.90;;;14.10;41.39;103372.97;4955140;28;97439;-54
2023/01/24 09:09:21;;;;;;;1.60;0.50;;;14.40;94.90;;;14.09;41.78;103376.50;4948678;28;96951;-56
2023/01/24 09:11:47;;;;;;;0.87;0.60;;;14.30;97.20;;;14.11;42.25;103380.03;4950923;28;97402;-54
2023/01/24 09:14:13;;;;;;;1.17;0.77;;;14.40;97.40;;;14.13;41.78;103372.94;4950617;28;98511;-51
2023/01/24 09:16:39;;;;;;;1.90;1.53;;;14.40;96.20;;;14.17;41.84;103377.31;4943575;28;97398;-54
2023/01/24 09:19:05;;;;;;;1.53;0.77;;;14.40;96.60;;;14.07;41.99;103380.94;4949450;28;98918;-54
2023/01/24 09:21:35;;;;;;;0.60;0.43;;;14.20;97.30;;;14.11;41.98;103380.91;4946191;28;96829;-54
2023/01/24 09:24:01;;;;;;;1.80;0.70;;;14.30;97.30;;;14.15;41.85;103387.06;4943738;28;97530;-55
2023/01/24 09:26:27;;;;;;;0.70;0.60;;;14.50;97.10;;;14.22;41.73;103389.69;4933264;28;97457;-51
2023/01/24 09:28:53;;;;;;;1.13;0.60;;;14.50;96.90;;;14.25;41.73;103388.78;4946163;28;97298;-50
2023/01/24 09:31:20;;;;;;;1.43;0.80;;;14.60;96.70;;;14.30;41.55;103386.94;4946317;28;98680;-55
2023/01/24 09:33:46;;;;;;;1.63;0.80;;;14.60;96.50;;;14.25;41.49;103386.13;4931550;28;99571;-54
2023/01/24 09:36:12;;;;;;;1.13;0.70;;;14.60;96.50;;;14.31;41.34;103391.38;4920413;28;97751;-51
2023/01/24 09:38:38;;;;;;;2.70;1.50;;;14.60;96.60;;;14.32;41.62;103390.50;4902311;28;97243;-56
2023/01/24 09:41:29;;;;;;;0.90;0.60;;;14.60;96.60;;;14.31;41.78;103388.72;4943934;28;98647;-55
2023/01/24 09:44:11;;;;;;;1.40;0.77;;;14.60;96.50;;;14.36;39.65;103386.91;4946448;28;102545;-55
2023/01/24 09:46:48;;;;;;;1.60;0.80;;;14.70;93.70;;;14.34;41.21;103391.38;4949963;28;97280;-56
2023/01/24 09:49:47;;;;;;;0.53;0.50;;;14.60;96.10;;;14.28;41.54;103394.06;4953909;28;97798;-53
2023/01/24 09:52:29;;;;;;;1.90;1.00;;;14.50;96.30;;;14.30;40.57;103397.56;4927305;28;101940;-51
2023/01/24 09:55:22;;;;;;;2.73;1.83;;;14.60;94.60;;;14.23;41.43;103395.88;4949242;28;101437;-54
2023/01/24 09:58:32;;;;;;;0.67;0.50;;;14.40;93.30;;;14.16;41.83;103394.13;4947839;28;97508;-50
2023/01/24 10:01:11;;;;;;;0.60;0.60;;;14.30;97.00;;;14.15;41.90;103392.38;4948946;28;99842;-55
2023/01/24 10:03:39;;;;;;;1.07;0.80;;;14.40;97.00;;;14.18;42.16;103409.19;4938357;28;97123;-52
2023/01/24 10:06:22;;;;;;;1.67;0.57;;;14.50;96.80;;;14.26;41.93;103406.47;4951140;28;97271;-51
2023/01/24 10:09:17;;;;;;;0.60;0.60;;;14.60;96.40;;;14.31;41.84;103401.97;4928915;28;97677;-54
2023/01/24 10:12:28;;;;;;;1.00;0.60;;;14.70;96.50;;;14.32;41.68;103417.06;4951749;28;96991;-52
2023/01/24 10:15:07;;;;;;;1.43;0.90;;;14.70;96.40;;;14.30;41.72;103403.75;4948852;28;102703;-48
2023/01/24 10:17:45;;;;;;;1.03;0.80;;;14.70;96.30;;;14.34;41.44;103399.34;4931365;28;97242;-54
2023/01/24 10:20:38;;;;;;;1.47;1.00;;;14.80;96.20;;;14.31;41.26;103409.94;4955034;28;97934;-53
2023/01/24 10:23:25;;;;;;;1.40;0.80;;;14.50;94.00;;;14.28;41.72;103404.69;4906415;28;97880;-55
2023/01/24 10:26:09;;;;;;;0.90;0.70;;;14.50;96.50;;;14.23;41.69;103407.38;4911148;28;100754;-54
2023/01/24 10:28:40;;;;;;;1.50;0.93;;;14.50;96.40;;;14.24;41.85;103403.81;4914609;28;97488;-54
2023/01/24 10:31:14;;;;;;;1.67;0.80;;;14.50;96.30;;;14.26;41.85;103401.16;4915704;28;97527;-53
2023/01/24 10:33:48;;;;;;;0.97;0.87;;;14.60;96.40;;;14.32;41.48;103400.22;4961746;28;97526;-55
2023/01/24 10:36:30;;;;;;;1.17;0.73;;;14.70;96.00;;;14.31;41.80;103399.34;4937712;28;98607;-55
2023/01/24 10:38:56;;;;;;;2.37;1.70;;;14.70;96.30;;;14.33;40.42;103394.91;4932996;28;102297;-52
2023/01/24 10:41:30;;;;;;;1.73;0.77;;;14.70;93.60;;;14.35;41.31;103401.09;4930553;28;105970;-51
2023/01/24 10:44:03;;;;;;;3.03;1.20;;;14.60;95.90;;;14.29;41.42;103391.38;4956416;28;97968;-50
2023/01/24 10:46:41;;;;;;;2.00;0.67;;;14.50;95.60;;;14.29;41.79;103395.81;4951207;28;99032;-53
2023/01/24 10:49:36;;;;;;;1.57;0.90;;;14.50;95.90;;;14.29;41.70;103393.16;4936750;28;96811;-53
2023/01/24 10:52:20;;;;;;;1.27;0.73;;;14.50;96.30;;;14.23;41.66;103393.22;4953638;28;96950;-50
2023/01/24 10:54:56;;;;;;;0.50;0.50;;;14.40;92.80;;;14.18;41.79;103387.06;4936378;28;97073;-52
2023/01/24 10:57:49;;;;;;;1.63;1.10;;;14.40;96.80;;;14.08;41.81;103382.72;4950966;28;97283;-57
2023/01/24 11:00:35;;;;;;;2.23;1.13;;;14.20;95.00;;;13.97;42.22;103388.97;4958591;28;97247;-50
2023/01/24 11:03:17;;;;;;;1.57;1.00;;;14.00;96.50;;;13.97;42.21;103381.00;4947265;28;96540;-52